Terminal Aerodrome Forecast
Issued by NWS Grand Forks, ND

Home | Current Version | Previous Version | Graphics & Text | Print | Product List | Glossary On
Versions: 1 2 3 4 5 6 7 8 9 10 11 12 13 14
105
FTUS43 KFGF 162127 AAA
TAFFAR
TAF AMD
KFAR 162127Z 1621/1718 26015G25KT P6SM SKC
     FM162300 22013KT P6SM SKC
     FM170100 23007KT P6SM SKC
     FM171400 19006KT P6SM SKC=

USA.gov is the U.S. government's official web portal to all federal, state and local government web resources and services.